Jandaira, Brazil
Current Conditions -  °F | °C
As of 2:00 PM on Saturday 25 Oct 2014 (Local Time) from SBAR Reporting Station
Few Clouds Few Clouds  
Wind Chill: 82°   Ceiling: Unl
Heat Index: 85°   Visibility: 6mi
Dew Point: 66°   Wind: 15mph
Humidity: 58%   Direction: 90°E
Pressure: 29.91"   Gusts: NA
Location:  11.56°S, 37.78°W
Report Text: SBAR 251700Z 09013KT 9999 FEW017 28/19 Q1013
Loading
Personal Weather Stations






























Interactive Weather Map
Tropical Storm Tracking
New forecast layout! Learn more

10-Day Weather Forecast

Advertisements
Track Severe Weather on mobile